Time;durP1;ratioP1;P1;durP2;ratioP2;P2;SDS_P1;SDS_P2;PMS_P1;PMS_P2;Temp;Humidity;BMP_temperature;BMP_pressure;BME280_temperature;BME280_humidity;BME280_pressure;Samples;Min_cycle;Max_cycle;Signal;HPM_P1;HPM_P2
2021/11/16 00:00:00;;;;;;;67.40;32.55;;;6.40;99.90;;;;;;5095410;28;20127;-69
2021/11/16 00:02:25;;;;;;;63.80;32.10;;;6.40;99.90;;;;;;5095501;28;20040;-69
2021/11/16 00:04:51;;;;;;;68.57;34.00;;;6.40;99.90;;;;;;5095739;28;20047;-69
2021/11/16 00:07:18;;;;;;;71.35;31.75;;;6.40;99.90;;;;;;5095565;28;20047;-69
2021/11/16 00:09:45;;;;;;;63.15;31.73;;;6.40;99.90;;;;;;5095416;28;20115;-69
2021/11/16 00:12:11;;;;;;;62.00;31.30;;;6.40;99.90;;;;;;5095512;28;20073;-69
2021/11/16 00:14:37;;;;;;;70.40;34.15;;;6.40;99.90;;;;;;5095647;28;20415;-69
2021/11/16 00:17:02;;;;;;;65.70;33.15;;;6.40;99.90;;;;;;5095464;28;20036;-69
2021/11/16 00:19:28;;;;;;;68.45;32.78;;;6.40;99.90;;;;;;5093583;28;20040;-69
2021/11/16 00:21:56;;;;;;;68.70;33.17;;;6.40;99.90;;;;;;5093956;28;20044;-69
2021/11/16 00:24:36;;;;;;;65.70;32.92;;;6.40;99.90;;;;;;5095216;28;20062;-69
2021/11/16 00:27:02;;;;;;;71.40;34.15;;;6.40;99.90;;;;;;5095152;28;20559;-69
2021/11/16 00:29:28;;;;;;;65.50;32.22;;;6.40;99.90;;;;;;5094982;28;20036;-69
2021/11/16 00:31:53;;;;;;;68.72;33.05;;;6.40;99.90;;;;;;5095141;28;20111;-69
2021/11/16 00:34:19;;;;;;;71.93;34.42;;;6.40;99.90;;;;;;5094001;28;20047;-69
2021/11/16 00:36:45;;;;;;;67.30;34.38;;;6.40;99.90;;;;;;5095056;28;20036;-69
2021/11/16 00:39:11;;;;;;;69.47;34.85;;;6.40;99.90;;;;;;5094731;28;20081;-69
2021/11/16 00:41:36;;;;;;;77.13;36.05;;;6.40;99.90;;;;;;5095208;28;20040;-69
2021/11/16 00:44:02;;;;;;;73.07;33.97;;;6.40;99.90;;;;;;5095149;28;20043;-69
2021/11/16 00:46:28;;;;;;;70.57;34.70;;;6.40;99.90;;;;;;5093422;28;20590;-69
2021/11/16 00:48:54;;;;;;;73.55;34.95;;;6.40;99.90;;;;;;5093304;28;20042;-69
2021/11/16 00:51:19;;;;;;;79.28;35.17;;;6.40;99.90;;;;;;5094987;28;20051;-69
2021/11/16 00:53:45;;;;;;;66.35;33.67;;;6.40;99.90;;;;;;5093704;28;20125;-69
2021/11/16 00:56:11;;;;;;;72.20;34.53;;;6.40;99.90;;;;;;5093990;28;20533;-69
2021/11/16 00:58:37;;;;;;;67.72;35.67;;;6.30;99.90;;;;;;5093338;28;20047;-69
2021/11/16 01:01:04;;;;;;;66.53;34.72;;;6.30;99.90;;;;;;5094691;28;20404;-69
2021/11/16 01:03:30;;;;;;;71.20;35.47;;;6.30;99.90;;;;;;5093487;28;20047;-69
2021/11/16 01:05:57;;;;;;;73.45;33.60;;;6.30;99.90;;;;;;5094453;28;20123;-69
2021/11/16 01:08:24;;;;;;;68.85;35.08;;;6.40;99.90;;;;;;5093053;28;20071;-69
2021/11/16 01:10:50;;;;;;;72.88;34.83;;;6.40;99.90;;;;;;5094054;28;20123;-69
2021/11/16 01:13:18;;;;;;;68.45;32.97;;;6.40;99.90;;;;;;5093151;28;20062;-69
2021/11/16 01:15:45;;;;;;;67.25;33.55;;;6.40;99.90;;;;;;5094804;28;20115;-69
2021/11/16 01:18:12;;;;;;;68.25;33.25;;;6.40;99.90;;;;;;5094280;28;20040;-69
2021/11/16 01:20:39;;;;;;;75.32;34.95;;;6.30;99.90;;;;;;5094108;28;20036;-69
2021/11/16 01:23:08;;;;;;;69.00;34.90;;;6.30;99.90;;;;;;5093155;28;20051;-69
2021/11/16 01:25:37;;;;;;;69.10;34.30;;;6.30;99.90;;;;;;5092941;28;20040;-69
2021/11/16 01:28:11;;;;;;;72.93;33.97;;;6.40;99.90;;;;;;5094547;28;20070;-69
2021/11/16 01:30:39;;;;;;;73.03;36.00;;;6.40;99.90;;;;;;5092822;28;20051;-69
2021/11/16 01:33:08;;;;;;;72.13;35.03;;;6.40;99.90;;;;;;5093142;28;20100;-69
2021/11/16 01:35:36;;;;;;;68.35;35.03;;;6.30;99.90;;;;;;5093859;28;20507;-69
2021/11/16 01:38:02;;;;;;;70.03;33.50;;;6.30;99.90;;;;;;5094122;28;20519;-69
2021/11/16 01:40:28;;;;;;;73.13;36.08;;;6.30;99.90;;;;;;5093530;28;20111;-69
2021/11/16 01:42:54;;;;;;;76.28;34.83;;;6.30;99.90;;;;;;5093903;28;20519;-69
2021/11/16 01:45:21;;;;;;;75.20;34.15;;;6.30;99.90;;;;;;5093966;28;20115;-69
2021/11/16 01:47:48;;;;;;;74.13;34.03;;;6.30;99.90;;;;;;5093897;28;20040;-69
2021/11/16 01:50:16;;;;;;;79.22;34.50;;;6.30;99.90;;;;;;5092352;28;20377;-69
2021/11/16 01:52:42;;;;;;;73.32;35.47;;;6.30;99.90;;;;;;5093602;28;20460;-69
2021/11/16 01:55:10;;;;;;;74.05;34.90;;;6.30;99.90;;;;;;5093710;28;20089;-69
2021/11/16 01:57:36;;;;;;;67.05;32.45;;;6.30;99.90;;;;;;5092674;28;20048;-69
2021/11/16 02:00:08;;;;;;;74.65;34.45;;;6.40;99.90;;;;;;5093472;28;20047;-69
2021/11/16 02:02:34;;;;;;;75.32;36.22;;;6.40;99.90;;;;;;5092176;28;20051;-69
2021/11/16 02:04:59;;;;;;;84.10;37.33;;;6.40;99.90;;;;;;5093357;28;20040;-69
2021/11/16 02:07:25;;;;;;;78.03;36.13;;;6.40;99.90;;;;;;5094254;28;20076;-69
2021/11/16 02:09:51;;;;;;;83.18;35.67;;;6.40;99.90;;;;;;5093192;28;20032;-69
2021/11/16 02:12:17;;;;;;;74.72;36.38;;;6.40;99.90;;;;;;5093289;28;20130;-69
2021/11/16 02:14:42;;;;;;;80.63;37.45;;;6.40;99.90;;;;;;5093335;28;20028;-69
2021/11/16 02:17:08;;;;;;;74.63;36.63;;;6.30;99.90;;;;;;5092438;28;20080;-69
2021/11/16 02:19:35;;;;;;;74.88;36.10;;;6.30;99.90;;;;;;5092837;28;20043;-69
2021/11/16 02:22:02;;;;;;;70.47;35.70;;;6.30;99.90;;;;;;5093313;28;20036;-69
2021/11/16 02:24:27;;;;;;;81.70;38.40;;;6.40;99.90;;;;;;5091909;28;20052;-69
2021/11/16 02:26:53;;;;;;;76.10;35.45;;;6.40;99.90;;;;;;5093199;28;20142;-69
2021/11/16 02:29:19;;;;;;;82.18;38.33;;;6.40;99.90;;;;;;5093498;28;20195;-69
2021/11/16 02:31:45;;;;;;;82.20;36.15;;;6.40;99.90;;;;;;5093316;28;20465;-69
2021/11/16 02:34:11;;;;;;;77.75;35.47;;;6.40;99.90;;;;;;5093436;28;20418;-69
2021/11/16 02:36:37;;;;;;;75.82;37.08;;;6.40;99.90;;;;;;5093104;28;20055;-69
2021/11/16 02:39:06;;;;;;;82.63;36.83;;;6.40;99.90;;;;;;5091951;28;20048;-69
2021/11/16 02:41:34;;;;;;;81.13;38.15;;;6.40;99.90;;;;;;5093259;28;20097;-69
2021/11/16 02:44:02;;;;;;;79.07;35.92;;;6.40;99.90;;;;;;5093346;28;20044;-69
2021/11/16 02:46:29;;;;;;;71.88;36.70;;;6.30;99.90;;;;;;5092946;28;20040;-69
2021/11/16 02:48:55;;;;;;;77.88;35.28;;;6.40;99.90;;;;;;5091695;28;20086;-69
2021/11/16 02:51:21;;;;;;;75.28;34.10;;;6.40;99.90;;;;;;5092897;28;20520;-69
2021/11/16 02:53:47;;;;;;;74.07;33.65;;;6.40;99.90;;;;;;5092972;28;20083;-69
2021/11/16 02:56:12;;;;;;;75.32;32.50;;;6.40;99.90;;;;;;5092009;28;20040;-69
2021/11/16 02:58:39;;;;;;;74.35;35.08;;;6.40;99.90;;;;;;5092823;28;20039;-69
2021/11/16 03:01:08;;;;;;;75.38;36.55;;;6.40;99.90;;;;;;5091534;28;20555;-69
2021/11/16 03:03:37;;;;;;;77.07;37.17;;;6.40;99.90;;;;;;5091734;28;20052;-69
2021/11/16 03:06:03;;;;;;;72.22;34.45;;;6.40;99.90;;;;;;5092859;28;20057;-69
2021/11/16 03:08:29;;;;;;;72.68;32.92;;;6.40;99.90;;;;;;5091543;28;20028;-70
2021/11/16 03:10:58;;;;;;;80.72;34.47;;;6.50;99.90;;;;;;5092983;28;20161;-69
2021/11/16 03:13:26;;;;;;;75.15;34.50;;;6.40;99.90;;;;;;5092832;28;20044;-69
2021/11/16 03:15:52;;;;;;;72.80;35.22;;;6.40;99.90;;;;;;5092208;28;20341;-69
2021/11/16 03:18:18;;;;;;;70.60;32.33;;;6.40;99.90;;;;;;5092930;28;20047;-69
2021/11/16 03:20:44;;;;;;;70.40;34.42;;;6.40;99.90;;;;;;5091392;28;20407;-69
2021/11/16 03:23:17;;;;;;;75.72;35.08;;;6.50;99.90;;;;;;5092993;28;20046;-69
2021/11/16 03:25:50;;;;;;;76.63;34.97;;;6.50;99.90;;;;;;5092638;28;20097;-69
2021/11/16 03:28:17;;;;;;;74.00;34.42;;;6.50;99.90;;;;;;5095210;28;20278;-69
2021/11/16 03:30:44;;;;;;;76.32;33.90;;;6.50;99.90;;;;;;5095435;28;20430;-69
2021/11/16 03:33:10;;;;;;;74.80;34.70;;;6.50;99.90;;;;;;5096489;28;20160;-69
2021/11/16 03:35:36;;;;;;;71.15;33.67;;;6.50;99.90;;;;;;5095269;28;20073;-69
2021/11/16 03:38:04;;;;;;;75.18;34.45;;;6.50;99.90;;;;;;5095061;28;20044;-69
2021/11/16 03:40:32;;;;;;;78.30;33.67;;;6.40;99.90;;;;;;5095954;28;20048;-69
2021/11/16 03:42:57;;;;;;;76.60;34.83;;;6.40;99.90;;;;;;5095853;28;20576;-69
2021/11/16 03:45:27;;;;;;;71.78;32.60;;;6.30;99.90;;;;;;5094667;28;20119;-69
2021/11/16 03:47:55;;;;;;;68.13;32.25;;;6.30;99.90;;;;;;5096383;28;20047;-69
2021/11/16 03:50:24;;;;;;;73.13;31.60;;;6.20;99.90;;;;;;5095765;28;20043;-69
2021/11/16 03:52:56;;;;;;;70.53;32.08;;;6.20;99.90;;;;;;5094505;28;20501;-69
2021/11/16 03:55:25;;;;;;;67.38;30.23;;;6.20;99.90;;;;;;5095744;28;20393;-69
2021/11/16 03:57:54;;;;;;;77.88;33.58;;;6.20;99.90;;;;;;5095751;28;20080;-69
2021/11/16 04:00:23;;;;;;;81.18;34.13;;;6.20;99.90;;;;;;5095361;28;20125;-69
2021/11/16 04:02:49;;;;;;;84.35;34.33;;;6.20;99.90;;;;;;5095832;28;20040;-69
2021/11/16 04:05:15;;;;;;;80.10;34.90;;;6.20;99.90;;;;;;5094479;28;20169;-69
2021/11/16 04:07:42;;;;;;;76.10;32.83;;;6.30;99.90;;;;;;5095748;28;20471;-69
2021/11/16 04:10:11;;;;;;;78.10;34.15;;;6.30;99.90;;;;;;5095342;28;20089;-69
2021/11/16 04:12:38;;;;;;;76.15;33.47;;;6.30;99.90;;;;;;5094419;28;20075;-69
2021/11/16 04:15:05;;;;;;;70.03;31.63;;;6.30;99.90;;;;;;5095530;28;20040;-69
2021/11/16 04:17:32;;;;;;;73.50;34.00;;;6.30;99.90;;;;;;5095380;28;20044;-69
2021/11/16 04:19:59;;;;;;;69.32;31.30;;;6.30;99.90;;;;;;5094852;28;20373;-69
2021/11/16 04:22:26;;;;;;;76.85;33.80;;;6.40;99.90;;;;;;5095078;28;20404;-69
2021/11/16 04:24:51;;;;;;;84.03;37.05;;;6.30;99.90;;;;;;5094776;28;20126;-69
2021/11/16 04:27:17;;;;;;;79.65;34.28;;;6.30;99.90;;;;;;5095425;28;20036;-69
2021/11/16 04:29:43;;;;;;;79.72;35.03;;;6.30;99.90;;;;;;5094796;28;20047;-69
2021/11/16 04:32:08;;;;;;;78.35;35.88;;;6.30;99.90;;;;;;5093941;28;20040;-69
2021/11/16 04:34:34;;;;;;;84.13;37.75;;;6.30;99.90;;;;;;5095414;28;20039;-69
2021/11/16 04:37:00;;;;;;;81.07;35.15;;;6.30;99.90;;;;;;5094043;28;20524;-69
2021/11/16 04:39:26;;;;;;;83.43;36.47;;;6.30;99.90;;;;;;5092862;28;20072;-69
2021/11/16 04:41:52;;;;;;;77.22;34.83;;;6.30;99.90;;;;;;5094765;28;20051;-69
2021/11/16 04:44:19;;;;;;;87.53;37.42;;;6.30;99.90;;;;;;5095233;28;20117;-69
2021/11/16 04:46:45;;;;;;;80.00;36.35;;;6.30;99.90;;;;;;5094876;28;20142;-69
2021/11/16 04:49:25;;;;;;;83.70;38.15;;;6.40;99.90;;;;;;5094485;28;20071;-69
2021/11/16 04:54:37;;;;;;;84.55;35.72;;;6.30;99.90;;;;;;5093747;28;20048;-69
2021/11/16 05:02:34;;;;;;;80.60;34.67;;;6.20;99.90;;;;;;5062639;28;20123;-70
2021/11/16 05:02:41;;;;;;;78.70;33.70;;;6.20;99.90;;;;;;5091864;28;20054;-69
2021/11/16 05:05:09;;;;;;;79.90;35.78;;;6.20;99.90;;;;;;5094771;28;20040;-69
2021/11/16 05:07:38;;;;;;;83.38;33.38;;;6.10;99.90;;;;;;5094329;28;20123;-69
2021/11/16 05:10:06;;;;;;;91.35;35.03;;;6.10;99.90;;;;;;5094102;28;20074;-69
2021/11/16 05:12:32;;;;;;;81.65;34.10;;;6.10;99.90;;;;;;5094276;28;20051;-69
2021/11/16 05:15:01;;;;;;;78.55;35.28;;;6.10;99.90;;;;;;5094594;28;20043;-69
2021/11/16 05:17:27;;;;;;;84.93;34.53;;;6.10;99.90;;;;;;5094776;28;20491;-69
2021/11/16 05:19:53;;;;;;;85.60;37.13;;;6.10;99.90;;;;;;5093787;28;20076;-69
2021/11/16 05:22:19;;;;;;;95.68;36.88;;;6.10;99.90;;;;;;5094380;28;20080;-69
2021/11/16 05:24:45;;;;;;;77.03;33.83;;;6.10;99.90;;;;;;5092749;28;20381;-69
2021/11/16 05:27:11;;;;;;;79.75;35.00;;;6.10;99.90;;;;;;5094075;28;20053;-69
2021/11/16 05:29:37;;;;;;;78.70;35.28;;;6.00;99.90;;;;;;5093603;28;20430;-69
2021/11/16 05:32:03;;;;;;;83.15;37.00;;;6.10;99.90;;;;;;5093792;28;20039;-69
2021/11/16 05:34:28;;;;;;;90.00;37.95;;;6.20;99.90;;;;;;5094255;28;20115;-69
2021/11/16 05:36:54;;;;;;;87.40;36.72;;;6.10;99.90;;;;;;5092626;28;20523;-69
2021/11/16 05:39:20;;;;;;;80.38;34.70;;;6.10;99.90;;;;;;5093686;28;20040;-69
2021/11/16 05:41:47;;;;;;;85.53;34.72;;;6.20;99.90;;;;;;5092726;28;20373;-69
2021/11/16 05:44:13;;;;;;;86.00;36.88;;;6.20;99.90;;;;;;5092436;28;20072;-69
2021/11/16 05:46:39;;;;;;;83.03;36.78;;;6.20;99.90;;;;;;5093969;28;20043;-69
2021/11/16 05:49:05;;;;;;;89.40;38.53;;;6.20;99.90;;;;;;5092927;28;20032;-69
2021/11/16 05:51:31;;;;;;;91.43;36.53;;;6.20;99.90;;;;;;5093463;28;20036;-69
2021/11/16 05:54:00;;;;;;;90.35;37.72;;;6.10;99.90;;;;;;5093697;28;20040;-69
2021/11/16 05:56:31;;;;;;;86.28;36.25;;;6.10;99.90;;;;;;5093699;28;20062;-69
2021/11/16 05:58:58;;;;;;;86.18;35.60;;;6.20;99.90;;;;;;5093218;28;20511;-69
2021/11/16 06:01:30;;;;;;;80.80;35.00;;;6.20;99.90;;;;;;5093446;28;20383;-69
2021/11/16 06:03:57;;;;;;;86.03;36.88;;;6.20;99.90;;;;;;5092065;28;20052;-69
2021/11/16 06:06:32;;;;;;;88.80;35.38;;;6.20;99.90;;;;;;5093852;28;20131;-69
2021/11/16 06:09:03;;;;;;;86.60;36.92;;;6.30;99.90;;;;;;5093206;28;20396;-69
2021/11/16 06:11:30;;;;;;;80.45;37.65;;;6.30;99.90;;;;;;5093307;28;20036;-69
2021/11/16 06:13:55;;;;;;;95.97;39.83;;;6.30;99.90;;;;;;5093209;28;20044;-69
2021/11/16 06:16:21;;;;;;;82.65;35.40;;;6.30;99.90;;;;;;5092039;28;20423;-69
2021/11/16 06:18:50;;;;;;;85.28;36.35;;;6.30;99.90;;;;;;5093264;28;20043;-69
2021/11/16 06:21:16;;;;;;;89.95;37.88;;;6.30;99.90;;;;;;5093802;28;20136;-69
2021/11/16 06:23:41;;;;;;;88.20;36.70;;;6.30;99.90;;;;;;5093385;28;20234;-69
2021/11/16 06:26:07;;;;;;;93.35;38.08;;;6.30;99.90;;;;;;5093531;28;20510;-69
2021/11/16 06:28:33;;;;;;;81.60;36.72;;;6.30;99.90;;;;;;5091582;28;20505;-69
2021/11/16 06:30:59;;;;;;;88.65;37.85;;;6.30;99.90;;;;;;5093528;28;20036;-69
2021/11/16 06:33:25;;;;;;;84.50;36.30;;;6.30;99.90;;;;;;5092410;28;20052;-69
2021/11/16 06:35:53;;;;;;;87.35;38.58;;;6.30;99.90;;;;;;5093332;28;20090;-69
2021/11/16 06:38:19;;;;;;;84.30;37.60;;;6.30;99.90;;;;;;5093017;28;20065;-69
2021/11/16 06:40:48;;;;;;;88.18;36.38;;;6.30;99.90;;;;;;5092653;28;20096;-69
2021/11/16 06:43:26;;;;;;;91.22;36.08;;;6.20;99.90;;;;;;5092986;28;20036;-69
2021/11/16 06:45:53;;;;;;;92.88;38.40;;;6.10;99.90;;;;;;5093507;28;20032;-69
2021/11/16 06:48:20;;;;;;;85.38;39.33;;;6.10;99.90;;;;;;5093111;28;20050;-69
2021/11/16 06:50:47;;;;;;;91.25;37.55;;;6.10;99.90;;;;;;5093113;28;20411;-68
2021/11/16 06:53:12;;;;;;;77.47;35.65;;;6.10;99.90;;;;;;5092861;28;20105;-69
2021/11/16 06:55:38;;;;;;;95.97;35.88;;;6.10;99.90;;;;;;5091706;28;20040;-69
2021/11/16 06:58:04;;;;;;;80.22;34.92;;;6.10;99.90;;;;;;5093081;28;20040;-69
2021/11/16 07:00:32;;;;;;;81.00;36.08;;;6.00;99.90;;;;;;5093431;28;20437;-69
2021/11/16 07:02:59;;;;;;;92.35;37.78;;;6.00;99.90;;;;;;5096498;28;20119;-69
2021/11/16 07:05:25;;;;;;;91.25;38.22;;;6.00;99.90;;;;;;5096917;28;20535;-69
2021/11/16 07:07:51;;;;;;;89.07;36.47;;;6.00;99.90;;;;;;5095628;28;20044;-69
2021/11/16 07:10:25;;;;;;;90.55;37.88;;;6.00;99.90;;;;;;5096458;28;20119;-68
2021/11/16 07:12:51;;;;;;;81.18;35.45;;;6.00;99.90;;;;;;5096579;28;20564;-69
2021/11/16 07:15:21;;;;;;;94.93;36.58;;;6.00;99.90;;;;;;5096711;28;20044;-68
2021/11/16 07:17:47;;;;;;;94.63;37.55;;;5.90;99.90;;;;;;5096386;28;20092;-68
2021/11/16 07:20:13;;;;;;;85.72;37.55;;;6.00;99.90;;;;;;5094853;28;20165;-68
2021/11/16 07:22:40;;;;;;;93.00;39.83;;;5.90;99.90;;;;;;5096488;28;20070;-68
2021/11/16 07:25:09;;;;;;;91.18;38.53;;;6.00;99.90;;;;;;5096583;28;20036;-68
2021/11/16 07:27:35;;;;;;;89.10;38.70;;;6.00;99.90;;;;;;5096454;28;20036;-68
2021/11/16 07:30:03;;;;;;;92.80;38.72;;;6.00;99.90;;;;;;5095925;28;20047;-68
2021/11/16 07:32:31;;;;;;;86.32;36.88;;;5.90;99.90;;;;;;5096280;28;20036;-68
2021/11/16 07:35:01;;;;;;;88.88;36.70;;;5.90;99.90;;;;;;5096529;28;20040;-68
2021/11/16 07:37:29;;;;;;;85.78;39.40;;;6.00;99.90;;;;;;5094933;28;20086;-68
2021/11/16 07:40:03;;;;;;;93.05;38.00;;;6.00;99.90;;;;;;5095800;28;20558;-68
2021/11/16 07:42:31;;;;;;;;;;;6.10;99.90;;;;;;5096570;28;20036;-68
2021/11/16 07:45:04;;;;;;;90.93;35.92;;;6.00;99.90;;;;;;5094973;28;19923;-68
2021/11/16 07:47:37;;;;;;;92.25;39.33;;;6.00;99.90;;;;;;5095453;28;20067;-68
2021/11/16 07:50:04;;;;;;;;;;;6.00;99.90;;;;;;5096209;28;20093;-68
2021/11/16 07:52:29;;;;;;;91.90;37.17;;;6.00;99.90;;;;;;5096388;28;20018;-68
2021/11/16 07:54:55;;;;;;;88.55;37.33;;;6.00;99.90;;;;;;5094776;28;20119;-68
2021/11/16 07:57:21;;;;;;;95.18;38.30;;;6.10;99.90;;;;;;5096251;28;20123;-68
2021/11/16 07:59:52;;;;;;;87.80;37.95;;;6.10;99.90;;;;;;5095410;28;20050;-68
2021/11/16 08:02:32;;;;;;;88.82;36.33;;;6.10;99.90;;;;;;5095911;28;20048;-68
2021/11/16 08:08:36;;;;;;;89.97;36.13;;;6.10;99.90;;;;;;5095682;28;20044;-68
2021/11/16 08:11:21;;;;;;;84.15;37.55;;;6.10;99.90;;;;;;5094187;28;20058;-68
2021/11/16 08:13:53;;;;;;;89.25;36.75;;;6.10;99.90;;;;;;5094269;28;20048;-67
2021/11/16 08:16:19;;;;;;;78.15;35.90;;;6.10;99.90;;;;;;5094003;28;20127;-68
2021/11/16 08:19:06;;;;;;;81.35;36.33;;;6.10;99.90;;;;;;5095044;28;20444;-68
2021/11/16 08:21:34;;;;;;;82.10;36.13;;;6.10;99.90;;;;;;5094102;28;20068;-68
2021/11/16 08:24:09;;;;;;;91.35;38.08;;;6.10;99.90;;;;;;5093819;28;20056;-68
2021/11/16 08:26:42;;;;;;;94.90;36.63;;;6.10;99.90;;;;;;5095301;28;20036;-68
2021/11/16 08:29:11;;;;;;;97.03;37.53;;;6.10;99.90;;;;;;5094641;28;20069;-68
2021/11/16 08:31:48;;;;;;;97.32;38.92;;;6.00;99.90;;;;;;5093653;28;20036;-68
2021/11/16 08:34:14;;;;;;;84.10;36.58;;;6.10;99.90;;;;;;5095484;28;20040;-68
2021/11/16 08:36:52;;;;;;;90.97;37.13;;;6.00;99.90;;;;;;5095347;28;20127;-67
2021/11/16 08:39:20;;;;;;;92.63;37.38;;;6.10;99.90;;;;;;5093593;28;20101;-68
2021/11/16 08:41:46;;;;;;;91.15;36.00;;;6.00;99.90;;;;;;5094630;28;20040;-68
2021/11/16 08:44:19;;;;;;;84.28;38.58;;;6.00;99.90;;;;;;5095113;28;20036;-68
2021/11/16 08:46:46;;;;;;;84.38;36.33;;;6.00;99.90;;;;;;5093920;28;20075;-68
2021/11/16 08:49:43;;;;;;;80.75;35.05;;;6.00;99.90;;;;;;5094361;28;20044;-68
2021/11/16 08:52:16;;;;;;;90.03;37.60;;;6.00;99.90;;;;;;5078276;28;20063;-68
2021/11/16 08:54:55;;;;;;;87.35;34.60;;;6.00;99.90;;;;;;5094792;28;20040;-68
2021/11/16 08:57:21;;;;;;;89.30;35.35;;;6.10;99.90;;;;;;5093635;28;20044;-68
2021/11/16 08:59:47;;;;;;;85.90;34.47;;;6.10;99.90;;;;;;5093297;28;20519;-68
2021/11/16 09:02:13;;;;;;;85.20;35.00;;;6.10;99.90;;;;;;5094916;28;20040;-68
2021/11/16 09:04:40;;;;;;;94.00;37.85;;;6.10;99.90;;;;;;5093488;28;20056;-68
2021/11/16 09:07:31;;;;;;;94.18;36.53;;;6.20;99.90;;;;;;5094530;28;20032;-68
2021/11/16 09:10:06;;;;;;;82.28;35.17;;;6.20;99.90;;;;;;5094272;28;20071;-68
2021/11/16 09:12:51;;;;;;;87.63;36.83;;;6.20;99.90;;;;;;5094251;28;20039;-68
2021/11/16 09:15:31;;;;;;;83.88;34.25;;;6.20;99.90;;;;;;5076034;28;20047;-68
2021/11/16 09:18:16;;;;;;;89.85;37.78;;;6.10;99.90;;;;;;5094155;28;20166;-68
2021/11/16 09:20:52;;;;;;;82.35;33.42;;;6.10;99.90;;;;;;5092747;28;20145;-68
2021/11/16 09:23:44;;;;;;;74.53;31.20;;;6.10;99.90;;;;;;5093247;28;20057;-69
2021/11/16 09:26:32;;;;;;;75.43;31.38;;;6.10;99.90;;;;;;5102419;28;20051;-68
2021/11/16 09:29:10;;;;;;;81.65;33.35;;;6.10;99.90;;;;;;5113094;28;20086;-68
2021/11/16 09:31:38;;;;;;;78.50;31.17;;;6.10;99.90;;;;;;5114330;28;20076;-68
2021/11/16 09:34:20;;;;;;;75.05;31.65;;;6.10;99.90;;;;;;5113086;28;20123;-68
2021/11/16 09:37:14;;;;;;;71.90;29.77;;;6.10;99.90;;;;;;5114552;28;20122;-68
2021/11/16 09:39:46;;;;;;;67.00;26.80;;;6.10;99.90;;;;;;5075923;28;20043;-68
2021/11/16 09:42:25;;;;;;;61.83;28.02;;;6.10;99.90;;;;;;5114094;28;20455;-68
2021/11/16 09:44:58;;;;;;;63.58;26.80;;;6.20;99.90;;;;;;5111808;28;20062;-68
2021/11/16 09:47:35;;;;;;;65.18;27.75;;;6.20;99.90;;;;;;5114064;28;20073;-68
2021/11/16 09:50:08;;;;;;;59.22;26.90;;;6.20;99.90;;;;;;5113830;28;20081;-68
2021/11/16 09:52:41;;;;;;;61.67;26.17;;;6.20;99.90;;;;;;5113937;28;20040;-68
2021/11/16 09:55:17;;;;;;;63.65;27.05;;;6.20;99.90;;;;;;5114933;28;20035;-69
2021/11/16 09:57:51;;;;;;;69.10;28.35;;;6.30;99.90;;;;;;5113109;28;20064;-68
2021/11/16 10:00:23;;;;;;;66.63;28.60;;;6.30;99.90;;;;;;5112431;28;20078;-69
2021/11/16 10:03:11;;;;;;;63.67;26.42;;;6.20;99.90;;;;;;5112678;28;20105;-69
2021/11/16 10:05:47;;;;;;;62.42;28.20;;;6.20;99.90;;;;;;5114166;28;20043;-69
2021/11/16 10:08:15;;;;;;;59.08;25.88;;;6.10;99.90;;;;;;5114002;28;20032;-69
2021/11/16 10:10:44;;;;;;;62.00;26.55;;;6.10;99.90;;;;;;5113686;28;20031;-68
2021/11/16 10:13:14;;;;;;;58.90;24.58;;;6.20;99.90;;;;;;5113647;28;20082;-68
2021/11/16 10:15:42;;;;;;;55.55;24.67;;;6.20;99.90;;;;;;5106357;28;20047;-69
2021/11/16 10:18:09;;;;;;;56.60;24.30;;;6.20;99.90;;;;;;5083715;28;20047;-69
2021/11/16 10:20:38;;;;;;;58.92;24.63;;;6.30;99.90;;;;;;5100483;28;20450;-69
2021/11/16 10:23:07;;;;;;;52.45;23.35;;;6.30;99.90;;;;;;5099113;28;20040;-69
2021/11/16 10:25:35;;;;;;;50.33;23.42;;;6.30;99.90;;;;;;5097307;28;20036;-69
2021/11/16 10:28:10;;;;;;;52.95;24.60;;;6.20;99.90;;;;;;5093098;28;20107;-69
2021/11/16 10:30:36;;;;;;;54.58;24.88;;;6.30;99.90;;;;;;5091781;28;20120;-69
2021/11/16 10:33:19;;;;;;;54.63;23.77;;;6.20;99.90;;;;;;5091730;28;20036;-69
2021/11/16 10:35:59;;;;;;;48.05;21.75;;;6.30;99.90;;;;;;5094743;28;20423;-69
2021/11/16 10:38:31;;;;;;;47.72;23.88;;;6.30;99.90;;;;;;5095855;28;20048;-69
2021/11/16 10:41:00;;;;;;;53.67;22.88;;;6.30;99.90;;;;;;5096059;28;20090;-69
2021/11/16 10:43:37;;;;;;;43.50;20.65;;;6.30;99.90;;;;;;5096119;28;20040;-69
2021/11/16 10:46:05;;;;;;;46.88;19.83;;;6.30;99.90;;;;;;5097645;28;20039;-69
2021/11/16 10:48:32;;;;;;;46.85;20.85;;;6.30;99.90;;;;;;5096841;28;20036;-69
2021/11/16 10:50:58;;;;;;;43.88;20.83;;;6.20;99.90;;;;;;5095660;28;20047;-69
2021/11/16 10:53:26;;;;;;;51.05;22.80;;;6.20;99.90;;;;;;5095707;28;20035;-69
2021/11/16 10:56:00;;;;;;;47.80;22.08;;;6.20;99.90;;;;;;5097120;28;20042;-69
2021/11/16 10:58:35;;;;;;;45.83;22.33;;;6.30;99.90;;;;;;5096892;28;20080;-69
2021/11/16 11:01:05;;;;;;;46.38;19.55;;;6.30;99.90;;;;;;5095523;28;20123;-67
2021/11/16 11:03:43;;;;;;;54.60;24.85;;;6.30;99.90;;;;;;5096873;28;20036;-69
2021/11/16 11:06:20;;;;;;;46.55;22.67;;;6.20;99.90;;;;;;5096016;28;20066;-69
2021/11/16 11:08:57;;;;;;;51.10;24.30;;;6.20;99.90;;;;;;5096453;28;20044;-69
2021/11/16 11:11:30;;;;;;;53.60;24.55;;;6.20;99.90;;;;;;5095266;28;20084;-69
2021/11/16 11:13:59;;;;;;;;;;;6.30;99.90;;;;;;5095890;28;20078;-69
2021/11/16 11:16:26;;;;;;;55.47;20.88;;;6.20;99.90;;;;;;5095458;28;19922;-69
2021/11/16 11:18:53;;;;;;;53.33;24.77;;;6.20;99.90;;;;;;5096228;28;20032;-69
2021/11/16 11:21:39;;;;;;;55.65;23.92;;;6.20;99.90;;;;;;5096546;28;20041;-69
2021/11/16 11:24:27;;;;;;;64.03;26.35;;;6.30;99.90;;;;;;5096576;28;20051;-69
2021/11/16 11:27:00;;;;;;;59.53;26.17;;;6.30;99.90;;;;;;5096548;28;20115;-68
2021/11/16 11:29:46;;;;;;;65.72;29.00;;;6.20;99.90;;;;;;5096137;28;20032;-69
2021/11/16 11:32:30;;;;;;;60.50;27.58;;;6.20;99.90;;;;;;5094887;28;20040;-69
2021/11/16 11:35:17;;;;;;;53.83;25.10;;;6.20;99.90;;;;;;5096361;28;20168;-69
2021/11/16 11:37:52;;;;;;;59.25;28.15;;;6.30;99.90;;;;;;5094657;28;20113;-69
2021/11/16 11:40:32;;;;;;;60.47;26.05;;;6.20;99.90;;;;;;5096109;28;20047;-69
2021/11/16 11:43:05;;;;;;;57.10;25.10;;;6.20;99.90;;;;;;5094719;28;20083;-69
2021/11/16 11:45:39;;;;;;;56.70;25.83;;;6.20;99.90;;;;;;5096243;28;20534;-69
2021/11/16 11:48:18;;;;;;;57.00;24.27;;;6.30;99.90;;;;;;5095663;28;20072;-69
2021/11/16 11:50:50;;;;;;;54.88;24.65;;;6.20;99.90;;;;;;5096060;28;20032;-69
2021/11/16 11:53:27;;;;;;;55.95;25.17;;;6.30;99.90;;;;;;5094484;28;20048;-69
2021/11/16 11:55:57;;;;;;;57.80;24.92;;;6.20;99.90;;;;;;5095931;28;20536;-68
2021/11/16 11:58:26;;;;;;;53.22;23.70;;;6.20;99.90;;;;;;5094377;28;20134;-69
2021/11/16 12:00:55;;;;;;;65.50;27.25;;;6.20;99.90;;;;;;5095758;28;20036;-69
2021/11/16 12:03:22;;;;;;;52.72;24.45;;;6.10;99.90;;;;;;5095836;28;20040;-69
2021/11/16 12:05:48;;;;;;;56.33;24.02;;;6.10;99.90;;;;;;5095556;28;20496;-69
2021/11/16 12:08:15;;;;;;;49.10;21.50;;;6.20;99.90;;;;;;5094360;28;20047;-69
2021/11/16 12:10:44;;;;;;;51.60;24.13;;;6.20;99.90;;;;;;5095338;28;20097;-69
2021/11/16 12:13:11;;;;;;;58.15;23.30;;;6.20;99.90;;;;;;5095626;28;20124;-69
2021/11/16 12:15:48;;;;;;;57.28;24.20;;;6.20;99.90;;;;;;5095512;28;20036;-68
2021/11/16 12:18:16;;;;;;;56.92;26.02;;;6.20;99.90;;;;;;5094242;28;20399;-69
2021/11/16 12:20:55;;;;;;;61.70;25.75;;;6.20;99.90;;;;;;5093929;28;20032;-69
2021/11/16 12:23:47;;;;;;;67.38;26.40;;;6.20;99.90;;;;;;5094160;28;20158;-69
2021/11/16 12:26:15;;;;;;;62.22;26.60;;;6.20;99.90;;;;;;5095289;28;20040;-69
2021/11/16 12:28:41;;;;;;;66.63;25.40;;;6.10;99.90;;;;;;5095059;28;20063;-69
2021/11/16 12:31:08;;;;;;;63.80;27.70;;;6.10;99.90;;;;;;5095250;28;20040;-68
2021/11/16 12:33:44;;;;;;;66.25;26.98;;;6.10;99.90;;;;;;5095264;28;20089;-68
2021/11/16 12:36:18;;;;;;;67.07;27.20;;;6.10;99.90;;;;;;5095270;28;20204;-69
2021/11/16 12:38:49;;;;;;;61.35;25.63;;;6.10;99.90;;;;;;5093462;28;20499;-68
2021/11/16 12:41:27;;;;;;;62.58;26.08;;;6.10;99.90;;;;;;5094910;28;20036;-69
2021/11/16 12:43:54;;;;;;;63.30;26.45;;;6.10;99.90;;;;;;5093724;28;20507;-69
2021/11/16 12:46:22;;;;;;;59.35;25.08;;;6.00;99.90;;;;;;5100137;28;20039;-69
2021/11/16 12:48:55;;;;;;;64.90;26.23;;;6.00;99.90;;;;;;5114994;28;20036;-69
2021/11/16 12:51:29;;;;;;;56.75;26.42;;;6.00;99.90;;;;;;5113894;28;20039;-68
2021/11/16 12:54:00;;;;;;;69.72;27.33;;;6.00;99.90;;;;;;5115526;28;20047;-69
2021/11/16 12:56:45;;;;;;;63.80;26.35;;;6.00;99.90;;;;;;5115112;28;20438;-68
2021/11/16 12:59:14;;;;;;;66.70;27.20;;;6.00;99.90;;;;;;5102020;28;20054;-69